Fontana Dam, North Carolina
Current Conditions -  °F | °C
As of 9:15 AM on Sunday 21 Dec 2014 (Local Time) from KRHP Reporting Station
Haze Haze  
Wind Chill: 42°   Ceiling: 700
Heat Index: 42°   Visibility: 4mi
Dew Point: 42°   Wind: 0mph
Humidity: 98%   Direction: NA
Pressure: 30.21"   Gusts: NA
Location:  35.43°N, 83.83°W
Report Text: KRHP 211415Z AUTO 00000KT 4SM BR BKN007 OVC010 06/06 A3021 RMK AO2 T00580055
Loading
Personal Weather Stations






























Interactive Weather Map New forecast layout! Learn more

10-Day Weather Forecast

Advertisements
Track Severe Weather on mobile